sensor_id;sensor_type;location;lat;lon;timestamp;P1;durP1;ratioP1;P2;durP2;ratioP2
61617;SDS011;47518;51.776;9.370;2023-04-03T00:00:11;6.30;;;3.10;;
61617;SDS011;47518;51.776;9.370;2023-04-03T00:02:37;7.78;;;3.05;;
61617;SDS011;47518;51.776;9.370;2023-04-03T00:05:02;3.92;;;2.67;;
61617;SDS011;47518;51.776;9.370;2023-04-03T00:07:29;3.53;;;2.47;;
61617;SDS011;47518;51.776;9.370;2023-04-03T00:09:55;4.40;;;2.80;;
61617;SDS011;47518;51.776;9.370;2023-04-03T00:12:21;3.28;;;2.65;;
61617;SDS011;47518;51.776;9.370;2023-04-03T00:14:46;6.30;;;2.85;;
61617;SDS011;47518;51.776;9.370;2023-04-03T00:17:12;3.50;;;2.72;;
61617;SDS011;47518;51.776;9.370;2023-04-03T00:19:37;6.00;;;2.70;;
61617;SDS011;47518;51.776;9.370;2023-04-03T00:22:02;6.18;;;2.75;;
61617;SDS011;47518;51.776;9.370;2023-04-03T00:24:27;3.47;;;2.50;;
61617;SDS011;47518;51.776;9.370;2023-04-03T00:26:53;5.65;;;2.65;;
61617;SDS011;47518;51.776;9.370;2023-04-03T00:29:18;4.60;;;2.70;;
61617;SDS011;47518;51.776;9.370;2023-04-03T00:31:43;6.15;;;2.92;;
61617;SDS011;47518;51.776;9.370;2023-04-03T00:34:08;5.30;;;2.60;;
61617;SDS011;47518;51.776;9.370;2023-04-03T00:36:34;3.88;;;2.75;;
61617;SDS011;47518;51.776;9.370;2023-04-03T00:38:59;6.85;;;2.80;;
61617;SDS011;47518;51.776;9.370;2023-04-03T00:41:25;7.80;;;2.67;;
61617;SDS011;47518;51.776;9.370;2023-04-03T00:43:51;4.85;;;2.58;;
61617;SDS011;47518;51.776;9.370;2023-04-03T00:46:16;5.70;;;2.75;;
61617;SDS011;47518;51.776;9.370;2023-04-03T00:48:42;6.75;;;2.90;;
61617;SDS011;47518;51.776;9.370;2023-04-03T00:51:12;3.75;;;2.83;;
61617;SDS011;47518;51.776;9.370;2023-04-03T00:53:43;5.03;;;2.60;;
61617;SDS011;47518;51.776;9.370;2023-04-03T00:56:12;5.70;;;2.85;;
61617;SDS011;47518;51.776;9.370;2023-04-03T00:58:41;5.45;;;3.03;;
61617;SDS011;47518;51.776;9.370;2023-04-03T01:01:12;3.33;;;2.85;;
61617;SDS011;47518;51.776;9.370;2023-04-03T01:03:41;4.53;;;2.80;;
61617;SDS011;47518;51.776;9.370;2023-04-03T01:06:06;5.18;;;2.95;;
61617;SDS011;47518;51.776;9.370;2023-04-03T01:08:32;5.07;;;3.00;;
61617;SDS011;47518;51.776;9.370;2023-04-03T01:10:58;5.13;;;3.10;;
61617;SDS011;47518;51.776;9.370;2023-04-03T01:13:25;6.97;;;2.80;;
61617;SDS011;47518;51.776;9.370;2023-04-03T01:15:53;4.63;;;2.60;;
61617;SDS011;47518;51.776;9.370;2023-04-03T01:18:19;6.22;;;2.90;;
61617;SDS011;47518;51.776;9.370;2023-04-03T01:23:26;5.03;;;2.72;;
61617;SDS011;47518;51.776;9.370;2023-04-03T01:26:08;3.55;;;2.60;;
61617;SDS011;47518;51.776;9.370;2023-04-03T01:28:35;4.57;;;2.42;;
61617;SDS011;47518;51.776;9.370;2023-04-03T01:31:03;5.68;;;2.67;;
61617;SDS011;47518;51.776;9.370;2023-04-03T01:33:37;3.83;;;2.60;;
61617;SDS011;47518;51.776;9.370;2023-04-03T01:36:03;7.15;;;2.80;;
61617;SDS011;47518;51.776;9.370;2023-04-03T01:38:34;6.60;;;2.72;;
61617;SDS011;47518;51.776;9.370;2023-04-03T01:40:59;8.75;;;2.78;;
61617;SDS011;47518;51.776;9.370;2023-04-03T01:43:25;4.75;;;2.60;;
61617;SDS011;47518;51.776;9.370;2023-04-03T01:45:50;5.82;;;2.70;;
61617;SDS011;47518;51.776;9.370;2023-04-03T01:48:17;7.70;;;2.97;;
61617;SDS011;47518;51.776;9.370;2023-04-03T01:50:43;5.47;;;2.60;;
61617;SDS011;47518;51.776;9.370;2023-04-03T01:53:08;5.70;;;2.72;;
61617;SDS011;47518;51.776;9.370;2023-04-03T01:55:34;4.13;;;2.70;;
61617;SDS011;47518;51.776;9.370;2023-04-03T01:57:59;6.55;;;2.63;;
61617;SDS011;47518;51.776;9.370;2023-04-03T02:00:24;8.15;;;2.80;;
61617;SDS011;47518;51.776;9.370;2023-04-03T02:02:51;5.82;;;2.60;;
61617;SDS011;47518;51.776;9.370;2023-04-03T02:05:16;4.18;;;2.55;;
61617;SDS011;47518;51.776;9.370;2023-04-03T02:07:41;8.27;;;2.90;;
61617;SDS011;47518;51.776;9.370;2023-04-03T02:10:07;5.32;;;2.90;;
61617;SDS011;47518;51.776;9.370;2023-04-03T02:12:32;4.28;;;2.78;;
61617;SDS011;47518;51.776;9.370;2023-04-03T02:14:58;4.20;;;2.58;;
61617;SDS011;47518;51.776;9.370;2023-04-03T02:17:23;2.88;;;2.55;;
61617;SDS011;47518;51.776;9.370;2023-04-03T02:19:48;5.50;;;2.95;;
61617;SDS011;47518;51.776;9.370;2023-04-03T02:22:14;4.45;;;2.67;;
61617;SDS011;47518;51.776;9.370;2023-04-03T02:24:39;6.15;;;2.83;;
61617;SDS011;47518;51.776;9.370;2023-04-03T02:27:05;8.07;;;2.83;;
61617;SDS011;47518;51.776;9.370;2023-04-03T02:29:30;8.40;;;2.78;;
61617;SDS011;47518;51.776;9.370;2023-04-03T02:31:55;5.70;;;2.97;;
61617;SDS011;47518;51.776;9.370;2023-04-03T02:34:21;5.30;;;2.53;;
61617;SDS011;47518;51.776;9.370;2023-04-03T02:36:46;5.75;;;2.90;;
61617;SDS011;47518;51.776;9.370;2023-04-03T02:39:11;4.05;;;2.45;;
61617;SDS011;47518;51.776;9.370;2023-04-03T02:41:37;6.03;;;2.60;;
61617;SDS011;47518;51.776;9.370;2023-04-03T02:44:03;4.95;;;2.70;;
61617;SDS011;47518;51.776;9.370;2023-04-03T02:46:29;6.68;;;2.70;;
61617;SDS011;47518;51.776;9.370;2023-04-03T02:48:55;6.55;;;2.92;;
61617;SDS011;47518;51.776;9.370;2023-04-03T02:51:21;5.45;;;2.70;;
61617;SDS011;47518;51.776;9.370;2023-04-03T02:53:47;6.57;;;2.60;;
61617;SDS011;47518;51.776;9.370;2023-04-03T02:56:13;4.53;;;2.55;;
61617;SDS011;47518;51.776;9.370;2023-04-03T02:58:38;4.10;;;2.55;;
61617;SDS011;47518;51.776;9.370;2023-04-03T03:01:04;4.78;;;2.60;;
61617;SDS011;47518;51.776;9.370;2023-04-03T03:03:29;5.55;;;3.13;;
61617;SDS011;47518;51.776;9.370;2023-04-03T03:06:02;5.57;;;2.60;;
61617;SDS011;47518;51.776;9.370;2023-04-03T03:08:38;5.57;;;2.85;;
61617;SDS011;47518;51.776;9.370;2023-04-03T03:11:04;3.28;;;2.60;;
61617;SDS011;47518;51.776;9.370;2023-04-03T03:13:30;4.05;;;2.60;;
61617;SDS011;47518;51.776;9.370;2023-04-03T03:15:55;4.75;;;2.40;;
61617;SDS011;47518;51.776;9.370;2023-04-03T03:18:21;4.63;;;2.55;;
61617;SDS011;47518;51.776;9.370;2023-04-03T03:20:46;4.18;;;2.60;;
61617;SDS011;47518;51.776;9.370;2023-04-03T03:23:16;2.80;;;2.40;;
61617;SDS011;47518;51.776;9.370;2023-04-03T03:25:42;5.18;;;2.70;;
61617;SDS011;47518;51.776;9.370;2023-04-03T03:28:07;5.65;;;2.60;;
61617;SDS011;47518;51.776;9.370;2023-04-03T03:30:33;3.92;;;2.70;;
61617;SDS011;47518;51.776;9.370;2023-04-03T03:32:58;3.97;;;2.53;;
61617;SDS011;47518;51.776;9.370;2023-04-03T03:35:24;4.28;;;2.60;;
61617;SDS011;47518;51.776;9.370;2023-04-03T03:37:49;2.70;;;2.42;;
61617;SDS011;47518;51.776;9.370;2023-04-03T03:40:14;4.00;;;2.90;;
61617;SDS011;47518;51.776;9.370;2023-04-03T03:42:40;6.00;;;3.10;;
61617;SDS011;47518;51.776;9.370;2023-04-03T03:45:06;5.60;;;2.80;;
61617;SDS011;47518;51.776;9.370;2023-04-03T03:47:32;4.72;;;2.90;;
61617;SDS011;47518;51.776;9.370;2023-04-03T03:49:57;6.28;;;3.03;;
61617;SDS011;47518;51.776;9.370;2023-04-03T03:52:22;5.85;;;2.72;;
61617;SDS011;47518;51.776;9.370;2023-04-03T03:54:51;5.72;;;3.00;;
61617;SDS011;47518;51.776;9.370;2023-04-03T03:57:16;4.85;;;2.78;;
61617;SDS011;47518;51.776;9.370;2023-04-03T03:59:42;4.90;;;2.58;;
61617;SDS011;47518;51.776;9.370;2023-04-03T04:02:09;5.65;;;2.95;;
61617;SDS011;47518;51.776;9.370;2023-04-03T04:04:35;5.15;;;2.72;;
61617;SDS011;47518;51.776;9.370;2023-04-03T04:07:00;3.70;;;2.50;;
61617;SDS011;47518;51.776;9.370;2023-04-03T04:09:26;3.85;;;2.70;;
61617;SDS011;47518;51.776;9.370;2023-04-03T04:11:51;4.38;;;2.70;;
61617;SDS011;47518;51.776;9.370;2023-04-03T04:14:17;5.50;;;2.70;;
61617;SDS011;47518;51.776;9.370;2023-04-03T04:16:42;5.85;;;2.85;;
61617;SDS011;47518;51.776;9.370;2023-04-03T04:19:08;7.35;;;2.80;;
61617;SDS011;47518;51.776;9.370;2023-04-03T04:21:33;4.65;;;2.80;;
61617;SDS011;47518;51.776;9.370;2023-04-03T04:23:58;5.43;;;2.85;;
61617;SDS011;47518;51.776;9.370;2023-04-03T04:26:24;6.88;;;3.00;;
61617;SDS011;47518;51.776;9.370;2023-04-03T04:28:49;6.00;;;2.67;;
61617;SDS011;47518;51.776;9.370;2023-04-03T04:31:15;5.78;;;2.80;;
61617;SDS011;47518;51.776;9.370;2023-04-03T04:33:40;5.10;;;2.80;;
61617;SDS011;47518;51.776;9.370;2023-04-03T04:36:05;6.95;;;2.80;;
61617;SDS011;47518;51.776;9.370;2023-04-03T04:38:31;7.63;;;2.70;;
61617;SDS011;47518;51.776;9.370;2023-04-03T04:40:56;6.07;;;2.90;;
61617;SDS011;47518;51.776;9.370;2023-04-03T04:43:22;5.03;;;2.92;;
61617;SDS011;47518;51.776;9.370;2023-04-03T04:45:47;6.63;;;2.70;;
61617;SDS011;47518;51.776;9.370;2023-04-03T04:48:12;6.30;;;2.90;;
61617;SDS011;47518;51.776;9.370;2023-04-03T04:50:38;5.32;;;2.70;;
61617;SDS011;47518;51.776;9.370;2023-04-03T04:53:03;4.30;;;2.83;;
61617;SDS011;47518;51.776;9.370;2023-04-03T04:55:29;4.57;;;2.80;;
61617;SDS011;47518;51.776;9.370;2023-04-03T04:57:54;6.07;;;3.20;;
61617;SDS011;47518;51.776;9.370;2023-04-03T05:00:20;9.15;;;3.13;;
61617;SDS011;47518;51.776;9.370;2023-04-03T05:02:45;6.50;;;3.00;;
61617;SDS011;47518;51.776;9.370;2023-04-03T05:05:10;6.65;;;3.38;;
61617;SDS011;47518;51.776;9.370;2023-04-03T05:07:39;5.63;;;3.10;;
61617;SDS011;47518;51.776;9.370;2023-04-03T05:10:04;5.32;;;3.20;;
61617;SDS011;47518;51.776;9.370;2023-04-03T05:12:30;6.82;;;3.47;;
61617;SDS011;47518;51.776;9.370;2023-04-03T05:14:56;6.43;;;3.08;;
61617;SDS011;47518;51.776;9.370;2023-04-03T05:17:21;4.88;;;2.90;;
61617;SDS011;47518;51.776;9.370;2023-04-03T05:19:46;6.57;;;3.20;;
61617;SDS011;47518;51.776;9.370;2023-04-03T05:22:11;7.20;;;3.42;;
61617;SDS011;47518;51.776;9.370;2023-04-03T05:24:37;4.97;;;3.50;;
61617;SDS011;47518;51.776;9.370;2023-04-03T05:27:02;7.07;;;3.80;;
61617;SDS011;47518;51.776;9.370;2023-04-03T05:29:28;6.65;;;3.25;;
61617;SDS011;47518;51.776;9.370;2023-04-03T05:31:53;5.50;;;3.45;;
61617;SDS011;47518;51.776;9.370;2023-04-03T05:34:18;5.47;;;3.22;;
61617;SDS011;47518;51.776;9.370;2023-04-03T05:36:44;5.53;;;3.47;;
61617;SDS011;47518;51.776;9.370;2023-04-03T05:39:09;5.60;;;3.47;;
61617;SDS011;47518;51.776;9.370;2023-04-03T05:41:35;7.25;;;3.53;;
61617;SDS011;47518;51.776;9.370;2023-04-03T05:44:00;6.38;;;3.72;;
61617;SDS011;47518;51.776;9.370;2023-04-03T05:46:26;6.40;;;3.90;;
61617;SDS011;47518;51.776;9.370;2023-04-03T05:48:51;4.25;;;3.30;;
61617;SDS011;47518;51.776;9.370;2023-04-03T05:51:19;8.50;;;3.65;;
61617;SDS011;47518;51.776;9.370;2023-04-03T05:53:47;6.35;;;3.75;;
61617;SDS011;47518;51.776;9.370;2023-04-03T05:56:14;5.28;;;3.33;;
61617;SDS011;47518;51.776;9.370;2023-04-03T05:58:40;7.00;;;3.10;;
61617;SDS011;47518;51.776;9.370;2023-04-03T06:01:05;7.72;;;3.30;;
61617;SDS011;47518;51.776;9.370;2023-04-03T06:03:31;6.93;;;3.45;;
61617;SDS011;47518;51.776;9.370;2023-04-03T06:05:56;4.60;;;3.50;;
61617;SDS011;47518;51.776;9.370;2023-04-03T06:08:22;5.68;;;3.17;;
61617;SDS011;47518;51.776;9.370;2023-04-03T06:24:48;5.40;;;3.72;;
61617;SDS011;47518;51.776;9.370;2023-04-03T06:27:13;5.88;;;3.40;;
61617;SDS011;47518;51.776;9.370;2023-04-03T06:29:38;3.88;;;3.38;;
61617;SDS011;47518;51.776;9.370;2023-04-03T06:32:04;5.57;;;3.35;;
61617;SDS011;47518;51.776;9.370;2023-04-03T06:34:45;6.05;;;3.40;;
61617;SDS011;47518;51.776;9.370;2023-04-03T06:37:15;9.38;;;3.50;;
61617;SDS011;47518;51.776;9.370;2023-04-03T06:39:42;6.35;;;3.53;;
61617;SDS011;47518;51.776;9.370;2023-04-03T06:42:07;5.45;;;3.45;;
61617;SDS011;47518;51.776;9.370;2023-04-03T06:44:33;5.25;;;3.42;;
61617;SDS011;47518;51.776;9.370;2023-04-03T06:46:59;3.75;;;3.35;;
61617;SDS011;47518;51.776;9.370;2023-04-03T06:49:25;4.97;;;3.30;;
61617;SDS011;47518;51.776;9.370;2023-04-03T06:51:50;5.50;;;3.90;;
61617;SDS011;47518;51.776;9.370;2023-04-03T06:54:16;7.18;;;3.78;;
61617;SDS011;47518;51.776;9.370;2023-04-03T06:56:41;5.45;;;3.33;;
61617;SDS011;47518;51.776;9.370;2023-04-03T06:59:07;7.32;;;3.45;;
61617;SDS011;47518;51.776;9.370;2023-04-03T07:01:33;5.38;;;2.90;;
61617;SDS011;47518;51.776;9.370;2023-04-03T07:03:58;7.78;;;3.25;;
61617;SDS011;47518;51.776;9.370;2023-04-03T07:06:24;4.18;;;3.00;;
61617;SDS011;47518;51.776;9.370;2023-04-03T07:08:51;5.15;;;3.00;;
61617;SDS011;47518;51.776;9.370;2023-04-03T07:11:17;4.95;;;2.80;;
61617;SDS011;47518;51.776;9.370;2023-04-03T07:13:42;3.55;;;2.72;;
61617;SDS011;47518;51.776;9.370;2023-04-03T07:16:08;6.43;;;3.30;;
61617;SDS011;47518;51.776;9.370;2023-04-03T07:18:40;5.35;;;3.20;;
61617;SDS011;47518;51.776;9.370;2023-04-03T07:21:06;5.50;;;3.10;;
61617;SDS011;47518;51.776;9.370;2023-04-03T07:23:32;7.55;;;3.15;;
61617;SDS011;47518;51.776;9.370;2023-04-03T07:25:58;4.10;;;2.85;;
61617;SDS011;47518;51.776;9.370;2023-04-03T07:28:26;3.65;;;2.78;;
61617;SDS011;47518;51.776;9.370;2023-04-03T07:30:52;4.78;;;2.80;;
61617;SDS011;47518;51.776;9.370;2023-04-03T07:33:24;5.78;;;3.58;;
61617;SDS011;47518;51.776;9.370;2023-04-03T07:35:56;3.13;;;2.80;;
61617;SDS011;47518;51.776;9.370;2023-04-03T07:38:21;6.40;;;2.92;;
61617;SDS011;47518;51.776;9.370;2023-04-03T07:40:47;6.25;;;2.88;;
61617;SDS011;47518;51.776;9.370;2023-04-03T07:43:15;4.93;;;2.97;;
61617;SDS011;47518;51.776;9.370;2023-04-03T07:45:41;4.90;;;2.42;;
61617;SDS011;47518;51.776;9.370;2023-04-03T07:48:08;5.10;;;2.35;;
61617;SDS011;47518;51.776;9.370;2023-04-03T07:50:33;4.13;;;2.60;;
61617;SDS011;47518;51.776;9.370;2023-04-03T07:53:02;6.07;;;2.47;;
61617;SDS011;47518;51.776;9.370;2023-04-03T07:55:28;3.35;;;2.28;;
61617;SDS011;47518;51.776;9.370;2023-04-03T07:57:53;3.58;;;2.70;;
61617;SDS011;47518;51.776;9.370;2023-04-03T08:00:20;5.95;;;2.75;;
61617;SDS011;47518;51.776;9.370;2023-04-03T08:02:45;4.93;;;2.28;;
61617;SDS011;47518;51.776;9.370;2023-04-03T08:05:15;3.22;;;2.50;;
61617;SDS011;47518;51.776;9.370;2023-04-03T08:07:42;5.68;;;2.60;;
61617;SDS011;47518;51.776;9.370;2023-04-03T08:10:07;3.30;;;2.35;;
61617;SDS011;47518;51.776;9.370;2023-04-03T08:12:33;4.43;;;2.40;;
61617;SDS011;47518;51.776;9.370;2023-04-03T08:15:00;4.28;;;2.45;;
61617;SDS011;47518;51.776;9.370;2023-04-03T08:17:26;4.00;;;2.58;;
61617;SDS011;47518;51.776;9.370;2023-04-03T08:19:52;4.20;;;2.70;;
61617;SDS011;47518;51.776;9.370;2023-04-03T08:22:17;4.13;;;2.50;;
61617;SDS011;47518;51.776;9.370;2023-04-03T08:24:43;3.60;;;2.67;;
61617;SDS011;47518;51.776;9.370;2023-04-03T08:27:08;5.68;;;2.70;;
61617;SDS011;47518;51.776;9.370;2023-04-03T08:29:34;3.30;;;2.40;;
61617;SDS011;47518;51.776;9.370;2023-04-03T08:31:59;2.65;;;2.17;;
61617;SDS011;47518;51.776;9.370;2023-04-03T08:34:24;2.83;;;2.22;;
61617;SDS011;47518;51.776;9.370;2023-04-03T08:36:50;3.13;;;2.20;;
61617;SDS011;47518;51.776;9.370;2023-04-03T08:39:16;3.45;;;2.38;;
61617;SDS011;47518;51.776;9.370;2023-04-03T08:41:42;2.45;;;2.25;;
61617;SDS011;47518;51.776;9.370;2023-04-03T08:44:14;2.30;;;2.10;;
61617;SDS011;47518;51.776;9.370;2023-04-03T08:52:24;3.42;;;2.40;;
61617;SDS011;47518;51.776;9.370;2023-04-03T08:55:22;4.32;;;2.30;;
61617;SDS011;47518;51.776;9.370;2023-04-03T08:57:51;3.28;;;2.10;;
61617;SDS011;47518;51.776;9.370;2023-04-03T09:00:43;2.53;;;2.30;;
61617;SDS011;47518;51.776;9.370;2023-04-03T09:03:21;3.25;;;2.40;;
61617;SDS011;47518;51.776;9.370;2023-04-03T09:05:51;4.03;;;2.40;;
61617;SDS011;47518;51.776;9.370;2023-04-03T09:08:40;3.80;;;2.55;;
61617;SDS011;47518;51.776;9.370;2023-04-03T09:11:27;2.58;;;2.30;;
61617;SDS011;47518;51.776;9.370;2023-04-03T09:14:09;5.28;;;2.40;;
61617;SDS011;47518;51.776;9.370;2023-04-03T09:16:59;3.33;;;2.30;;
61617;SDS011;47518;51.776;9.370;2023-04-03T09:25:00;4.72;;;2.40;;
61617;SDS011;47518;51.776;9.370;2023-04-03T09:27:40;2.33;;;2.13;;
61617;SDS011;47518;51.776;9.370;2023-04-03T09:30:12;2.60;;;2.10;;
61617;SDS011;47518;51.776;9.370;2023-04-03T09:32:40;2.30;;;2.10;;
61617;SDS011;47518;51.776;9.370;2023-04-03T09:35:18;3.83;;;2.30;;
61617;SDS011;47518;51.776;9.370;2023-04-03T09:37:53;2.55;;;2.17;;
61617;SDS011;47518;51.776;9.370;2023-04-03T09:43:16;3.42;;;2.20;;
61617;SDS011;47518;51.776;9.370;2023-04-03T09:49:08;4.00;;;2.00;;
61617;SDS011;47518;51.776;9.370;2023-04-03T09:51:36;4.07;;;2.10;;
61617;SDS011;47518;51.776;9.370;2023-04-03T09:54:23;2.50;;;2.25;;
61617;SDS011;47518;51.776;9.370;2023-04-03T09:56:51;3.40;;;2.17;;
61617;SDS011;47518;51.776;9.370;2023-04-03T09:59:20;2.35;;;2.20;;
61617;SDS011;47518;51.776;9.370;2023-04-03T10:04:49;4.35;;;2.40;;
61617;SDS011;47518;51.776;9.370;2023-04-03T10:07:31;2.20;;;2.10;;
61617;SDS011;47518;51.776;9.370;2023-04-03T10:10:00;3.00;;;2.25;;
61617;SDS011;47518;51.776;9.370;2023-04-03T10:12:28;4.55;;;2.72;;
61617;SDS011;47518;51.776;9.370;2023-04-03T10:14:58;5.93;;;2.35;;
61617;SDS011;47518;51.776;9.370;2023-04-03T10:20:28;4.50;;;2.50;;
61617;SDS011;47518;51.776;9.370;2023-04-03T10:28:34;2.80;;;2.60;;
61617;SDS011;47518;51.776;9.370;2023-04-03T10:31:40;3.92;;;2.53;;
61617;SDS011;47518;51.776;9.370;2023-04-03T10:34:24;2.97;;;2.20;;
61617;SDS011;47518;51.776;9.370;2023-04-03T10:42:15;2.63;;;2.42;;
61617;SDS011;47518;51.776;9.370;2023-04-03T10:58:40;2.88;;;2.67;;
61617;SDS011;47518;51.776;9.370;2023-04-03T11:01:12;3.13;;;2.50;;
61617;SDS011;47518;51.776;9.370;2023-04-03T11:03:47;2.60;;;2.40;;
61617;SDS011;47518;51.776;9.370;2023-04-03T11:06:18;2.60;;;2.40;;
61617;SDS011;47518;51.776;9.370;2023-04-03T11:09:02;3.53;;;2.63;;
61617;SDS011;47518;51.776;9.370;2023-04-03T11:11:35;2.90;;;2.60;;
61617;SDS011;47518;51.776;9.370;2023-04-03T11:16:47;2.60;;;2.40;;
61617;SDS011;47518;51.776;9.370;2023-04-03T11:19:21;2.88;;;2.58;;
61617;SDS011;47518;51.776;9.370;2023-04-03T11:21:57;4.57;;;2.70;;
61617;SDS011;47518;51.776;9.370;2023-04-03T11:24:31;2.78;;;2.50;;
61617;SDS011;47518;51.776;9.370;2023-04-03T11:26:58;3.72;;;2.47;;
61617;SDS011;47518;51.776;9.370;2023-04-03T11:29:32;3.83;;;2.38;;
61617;SDS011;47518;51.776;9.370;2023-04-03T11:32:06;2.60;;;2.40;;
61617;SDS011;47518;51.776;9.370;2023-04-03T11:34:44;4.75;;;2.63;;
61617;SDS011;47518;51.776;9.370;2023-04-03T11:37:17;2.60;;;2.40;;
61617;SDS011;47518;51.776;9.370;2023-04-03T11:40:24;2.95;;;2.65;;
61617;SDS011;47518;51.776;9.370;2023-04-03T11:42:54;3.67;;;2.72;;
61617;SDS011;47518;51.776;9.370;2023-04-03T11:45:31;4.57;;;2.75;;
61617;SDS011;47518;51.776;9.370;2023-04-03T11:48:06;3.00;;;2.70;;
61617;SDS011;47518;51.776;9.370;2023-04-03T11:53:59;4.22;;;2.95;;
61617;SDS011;47518;51.776;9.370;2023-04-03T11:57:14;2.95;;;2.75;;
61617;SDS011;47518;51.776;9.370;2023-04-03T12:03:29;5.03;;;2.80;;
61617;SDS011;47518;51.776;9.370;2023-04-03T12:06:42;4.05;;;3.00;;
61617;SDS011;47518;51.776;9.370;2023-04-03T12:08:57;3.22;;;2.60;;
61617;SDS011;47518;51.776;9.370;2023-04-03T12:11:24;3.38;;;2.65;;
61617;SDS011;47518;51.776;9.370;2023-04-03T12:24:33;4.45;;;2.90;;
61617;SDS011;47518;51.776;9.370;2023-04-03T12:27:01;4.75;;;2.90;;
61617;SDS011;47518;51.776;9.370;2023-04-03T12:29:46;2.83;;;2.60;;
61617;SDS011;47518;51.776;9.370;2023-04-03T12:35:28;2.40;;;2.30;;
61617;SDS011;47518;51.776;9.370;2023-04-03T12:41:03;2.90;;;2.67;;
61617;SDS011;47518;51.776;9.370;2023-04-03T12:47:01;4.35;;;2.60;;
61617;SDS011;47518;51.776;9.370;2023-04-03T12:49:44;2.60;;;2.40;;
61617;SDS011;47518;51.776;9.370;2023-04-03T12:55:02;3.00;;;2.63;;
61617;SDS011;47518;51.776;9.370;2023-04-03T12:57:32;3.88;;;2.83;;
61617;SDS011;47518;51.776;9.370;2023-04-03T12:59:58;3.65;;;2.50;;
61617;SDS011;47518;51.776;9.370;2023-04-03T13:02:26;2.85;;;2.65;;
61617;SDS011;47518;51.776;9.370;2023-04-03T13:04:56;4.03;;;3.25;;
61617;SDS011;47518;51.776;9.370;2023-04-03T13:07:24;4.03;;;2.55;;
61617;SDS011;47518;51.776;9.370;2023-04-03T13:10:02;4.20;;;2.60;;
61617;SDS011;47518;51.776;9.370;2023-04-03T13:12:47;4.05;;;2.67;;
61617;SDS011;47518;51.776;9.370;2023-04-03T13:15:30;3.15;;;2.50;;
61617;SDS011;47518;51.776;9.370;2023-04-03T13:18:21;3.75;;;2.72;;
61617;SDS011;47518;51.776;9.370;2023-04-03T13:20:52;4.15;;;2.63;;
61617;SDS011;47518;51.776;9.370;2023-04-03T13:23:22;3.70;;;2.55;;
61617;SDS011;47518;51.776;9.370;2023-04-03T13:25:48;5.18;;;2.67;;
61617;SDS011;47518;51.776;9.370;2023-04-03T13:28:18;8.90;;;2.80;;
61617;SDS011;47518;51.776;9.370;2023-04-03T13:30:55;4.55;;;2.85;;
61617;SDS011;47518;51.776;9.370;2023-04-03T13:33:53;4.93;;;2.80;;
61617;SDS011;47518;51.776;9.370;2023-04-03T13:36:22;5.05;;;2.70;;
61617;SDS011;47518;51.776;9.370;2023-04-03T13:39:02;2.97;;;2.50;;
61617;SDS011;47518;51.776;9.370;2023-04-03T13:41:40;7.78;;;3.45;;
61617;SDS011;47518;51.776;9.370;2023-04-03T13:44:16;4.38;;;2.78;;
61617;SDS011;47518;51.776;9.370;2023-04-03T13:46:53;3.15;;;2.85;;
61617;SDS011;47518;51.776;9.370;2023-04-03T13:49:29;3.00;;;2.80;;
61617;SDS011;47518;51.776;9.370;2023-04-03T13:51:56;3.38;;;2.63;;
61617;SDS011;47518;51.776;9.370;2023-04-03T13:54:25;3.28;;;2.80;;
61617;SDS011;47518;51.776;9.370;2023-04-03T13:56:56;4.03;;;2.70;;
61617;SDS011;47518;51.776;9.370;2023-04-03T13:59:25;2.75;;;2.50;;
61617;SDS011;47518;51.776;9.370;2023-04-03T14:01:56;3.17;;;2.53;;
61617;SDS011;47518;51.776;9.370;2023-04-03T14:07:29;2.38;;;2.00;;
61617;SDS011;47518;51.776;9.370;2023-04-03T14:09:56;2.30;;;2.10;;
61617;SDS011;47518;51.776;9.370;2023-04-03T14:12:26;3.35;;;2.20;;
61617;SDS011;47518;51.776;9.370;2023-04-03T14:14:54;3.33;;;2.35;;
61617;SDS011;47518;51.776;9.370;2023-04-03T14:17:22;2.40;;;2.20;;
61617;SDS011;47518;51.776;9.370;2023-04-03T14:19:50;2.70;;;2.40;;
61617;SDS011;47518;51.776;9.370;2023-04-03T14:22:19;3.10;;;2.30;;
61617;SDS011;47518;51.776;9.370;2023-04-03T14:24:49;3.63;;;2.50;;
61617;SDS011;47518;51.776;9.370;2023-04-03T14:27:19;2.40;;;2.20;;
61617;SDS011;47518;51.776;9.370;2023-04-03T14:29:55;4.25;;;2.35;;
61617;SDS011;47518;51.776;9.370;2023-04-03T14:32:22;3.47;;;2.50;;
61617;SDS011;47518;51.776;9.370;2023-04-03T14:34:49;2.92;;;2.40;;
61617;SDS011;47518;51.776;9.370;2023-04-03T14:37:17;3.20;;;2.40;;
61617;SDS011;47518;51.776;9.370;2023-04-03T14:39:46;5.93;;;2.78;;
61617;SDS011;47518;51.776;9.370;2023-04-03T14:42:13;4.40;;;2.50;;
61617;SDS011;47518;51.776;9.370;2023-04-03T14:44:40;2.90;;;2.30;;
61617;SDS011;47518;51.776;9.370;2023-04-03T14:47:09;3.05;;;2.10;;
61617;SDS011;47518;51.776;9.370;2023-04-03T14:49:35;3.85;;;2.55;;
61617;SDS011;47518;51.776;9.370;2023-04-03T14:52:00;2.92;;;2.50;;
61617;SDS011;47518;51.776;9.370;2023-04-03T14:54:26;4.45;;;2.38;;
61617;SDS011;47518;51.776;9.370;2023-04-03T14:56:53;2.90;;;2.50;;
61617;SDS011;47518;51.776;9.370;2023-04-03T14:59:20;3.30;;;2.30;;
61617;SDS011;47518;51.776;9.370;2023-04-03T15:01:47;5.28;;;2.22;;
61617;SDS011;47518;51.776;9.370;2023-04-03T15:04:13;2.65;;;2.42;;
61617;SDS011;47518;51.776;9.370;2023-04-03T15:06:43;2.90;;;2.42;;
61617;SDS011;47518;51.776;9.370;2023-04-03T15:09:20;5.63;;;2.40;;
61617;SDS011;47518;51.776;9.370;2023-04-03T15:11:49;2.95;;;2.70;;
61617;SDS011;47518;51.776;9.370;2023-04-03T15:14:16;3.47;;;2.50;;
61617;SDS011;47518;51.776;9.370;2023-04-03T15:16:42;3.22;;;2.40;;
61617;SDS011;47518;51.776;9.370;2023-04-03T15:19:07;2.40;;;2.13;;
61617;SDS011;47518;51.776;9.370;2023-04-03T15:21:32;3.33;;;2.40;;
61617;SDS011;47518;51.776;9.370;2023-04-03T15:23:58;2.90;;;2.60;;
61617;SDS011;47518;51.776;9.370;2023-04-03T15:26:24;3.60;;;2.55;;
61617;SDS011;47518;51.776;9.370;2023-04-03T15:28:50;3.00;;;2.50;;
61617;SDS011;47518;51.776;9.370;2023-04-03T15:31:16;3.17;;;2.70;;
61617;SDS011;47518;51.776;9.370;2023-04-03T15:33:41;2.67;;;2.47;;
61617;SDS011;47518;51.776;9.370;2023-04-03T15:36:06;3.00;;;2.40;;
61617;SDS011;47518;51.776;9.370;2023-04-03T15:38:32;3.65;;;2.53;;
61617;SDS011;47518;51.776;9.370;2023-04-03T15:40:57;4.03;;;2.40;;
61617;SDS011;47518;51.776;9.370;2023-04-03T15:43:23;4.40;;;2.53;;
61617;SDS011;47518;51.776;9.370;2023-04-03T15:45:48;3.08;;;2.40;;
61617;SDS011;47518;51.776;9.370;2023-04-03T15:48:15;5.25;;;2.35;;
61617;SDS011;47518;51.776;9.370;2023-04-03T15:50:41;4.03;;;2.40;;
61617;SDS011;47518;51.776;9.370;2023-04-03T15:53:07;2.65;;;2.45;;
61617;SDS011;47518;51.776;9.370;2023-04-03T15:55:33;4.05;;;3.20;;
61617;SDS011;47518;51.776;9.370;2023-04-03T15:58:00;2.83;;;2.63;;
61617;SDS011;47518;51.776;9.370;2023-04-03T16:00:27;3.00;;;2.47;;
61617;SDS011;47518;51.776;9.370;2023-04-03T16:02:55;4.50;;;2.80;;
61617;SDS011;47518;51.776;9.370;2023-04-03T16:05:24;3.72;;;2.90;;
61617;SDS011;47518;51.776;9.370;2023-04-03T16:07:50;3.10;;;2.80;;
61617;SDS011;47518;51.776;9.370;2023-04-03T16:10:16;4.38;;;3.08;;
61617;SDS011;47518;51.776;9.370;2023-04-03T16:12:42;2.85;;;2.60;;
61617;SDS011;47518;51.776;9.370;2023-04-03T16:15:08;2.80;;;2.60;;
61617;SDS011;47518;51.776;9.370;2023-04-03T16:17:34;3.22;;;2.40;;
61617;SDS011;47518;51.776;9.370;2023-04-03T16:20:02;2.90;;;2.22;;
61617;SDS011;47518;51.776;9.370;2023-04-03T16:22:29;2.78;;;2.40;;
61617;SDS011;47518;51.776;9.370;2023-04-03T16:24:55;3.28;;;2.35;;
61617;SDS011;47518;51.776;9.370;2023-04-03T16:27:21;2.40;;;2.20;;
61617;SDS011;47518;51.776;9.370;2023-04-03T16:29:47;3.97;;;2.70;;
61617;SDS011;47518;51.776;9.370;2023-04-03T16:32:12;3.03;;;2.63;;
61617;SDS011;47518;51.776;9.370;2023-04-03T16:34:39;3.25;;;2.60;;
61617;SDS011;47518;51.776;9.370;2023-04-03T16:37:05;3.03;;;2.72;;